sim
Sign-in with your pilot id or email,
or register
Callsign
Passwort

Schedule Details

Flight Number: DLH2675
Departure: Fuerteventura Airport (GCFV) at 13:40
Arrival: Munich Airport (EDDM) at 18:10
Route: Lufthansa Passenger Schedule. Enter filed route here before submitting Pirep.

Weather Information
Getting current METAR information for GCFV 221730Z 04008KT CAVOK 26/22 Q1014
Getting current METAR information for EDDM 221720Z 12002KT 9999 FEW040CB 19/15 Q1010 NOSIG

Schedule Frequency

Route Map